createdAt,value
2023-05-24T00:03:39.429Z,98578.92
2023-05-24T00:08:41.565Z,98578.76
2023-05-24T00:13:43.445Z,98575.29
2023-05-24T00:18:47.032Z,98580.04
2023-05-24T00:23:51.841Z,98583.50
2023-05-24T00:28:53.558Z,98588.02
2023-05-24T00:33:55.710Z,98588.55
2023-05-24T00:38:57.460Z,98592.60
2023-05-24T00:43:59.489Z,98598.81
2023-05-24T00:49:01.920Z,98598.71
2023-05-24T00:54:05.011Z,98602.18
2023-05-24T00:59:06.988Z,98605.27
2023-05-24T01:04:08.916Z,98603.44
2023-05-24T01:09:23.123Z,98614.67
2023-05-24T01:14:41.795Z,98616.31
2023-05-24T01:19:51.183Z,98617.61
2023-05-24T01:25:17.212Z,98618.39
2023-05-24T01:30:19.131Z,98623.01
2023-05-24T01:35:21.076Z,98626.42
2023-05-24T01:40:23.737Z,98624.08
2023-05-24T01:45:35.708Z,98630.07
2023-05-24T01:50:45.747Z,98629.65
2023-05-24T01:55:53.439Z,98631.62
2023-05-24T02:00:56.251Z,98628.92
2023-05-24T02:05:58.031Z,98627.78
2023-05-24T02:11:00.125Z,98631.83
2023-05-24T02:16:02.503Z,98633.95
2023-05-24T02:21:04.225Z,98635.48
2023-05-24T02:26:06.368Z,98637.02
2023-05-24T02:31:08.653Z,98639.33
2023-05-24T02:36:11.051Z,98642.08
2023-05-24T02:41:17.831Z,98642.31
2023-05-24T02:46:19.684Z,98642.51
2023-05-24T02:51:21.496Z,98643.58
2023-05-24T02:56:23.800Z,98648.65
2023-05-24T03:01:25.689Z,98650.48
2023-05-24T03:06:28.038Z,98651.60
2023-05-24T03:11:29.775Z,98654.92
2023-05-24T03:16:33.137Z,98655.41
2023-05-24T03:21:34.926Z,98663.15
2023-05-24T03:26:37.852Z,98666.09
2023-05-24T03:31:40.289Z,98669.15
2023-05-24T03:36:43.312Z,98674.64
2023-05-24T03:41:45.194Z,98686.16
2023-05-24T03:46:47.638Z,98687.55
2023-05-24T03:51:49.431Z,98690.13
2023-05-24T03:56:53.323Z,98698.88
2023-05-24T04:01:55.482Z,98698.21
2023-05-24T04:06:58.140Z,98709.80
2023-05-24T04:11:59.846Z,98719.09
2023-05-24T04:17:04.507Z,98723.49
2023-05-24T04:22:06.557Z,98736.65
2023-05-24T04:27:11.934Z,98747.41
2023-05-24T04:32:15.370Z,98758.23
2023-05-24T04:37:17.477Z,98763.98
2023-05-24T04:42:20.915Z,98768.44
2023-05-24T04:47:22.680Z,98773.08
2023-05-24T04:52:24.562Z,98775.70
2023-05-24T04:57:26.518Z,98785.30
2023-05-24T05:02:28.385Z,98793.38
2023-05-24T05:07:30.283Z,98797.48
2023-05-24T05:12:32.035Z,98807.42
2023-05-24T05:17:33.946Z,98821.09
2023-05-24T05:22:35.876Z,98822.52
2023-05-24T05:27:37.599Z,98833.30
2023-05-24T05:32:40.214Z,98844.45
2023-05-24T05:37:42.134Z,98849.14
2023-05-24T05:42:43.880Z,98856.23
2023-05-24T05:47:45.793Z,98865.83
2023-05-24T05:52:47.566Z,98870.75
2023-05-24T05:57:49.281Z,98877.83
2023-05-24T06:02:51.565Z,98878.45
2023-05-24T06:07:53.474Z,98883.14
2023-05-24T06:12:55.681Z,98889.23
2023-05-24T06:17:57.695Z,98896.29
2023-05-24T06:23:00.139Z,98896.08
2023-05-24T06:28:01.874Z,98902.50
2023-05-24T06:33:04.318Z,98908.77
2023-05-24T06:38:06.167Z,98923.30
2023-05-24T06:43:07.932Z,98932.29
2023-05-24T06:48:09.799Z,98935.29
2023-05-24T06:53:11.750Z,98944.80
2023-05-24T06:58:14.557Z,98948.48
2023-05-24T07:03:16.563Z,98954.55
2023-05-24T07:08:18.338Z,98954.80
2023-05-24T07:13:20.044Z,98958.00
2023-05-24T07:18:21.795Z,98958.01
2023-05-24T07:23:23.623Z,98969.73
2023-05-24T07:28:25.306Z,98979.21
2023-05-24T07:33:27.197Z,98982.13
2023-05-24T07:38:29.325Z,98988.61
2023-05-24T07:43:31.119Z,98996.66
2023-05-24T07:48:32.889Z,98996.41
2023-05-24T07:53:34.822Z,98996.13
2023-05-24T07:58:36.616Z,99001.73
2023-05-24T08:03:39.501Z,99010.48
2023-05-24T08:08:41.458Z,99006.73
2023-05-24T08:13:44.362Z,99008.44
2023-05-24T08:18:46.621Z,99005.46
2023-05-24T08:23:48.296Z,99007.86
2023-05-24T08:28:50.153Z,99016.33
2023-05-24T08:33:52.835Z,99025.11
2023-05-24T08:38:54.618Z,99032.39
2023-05-24T08:44:01.397Z,99041.03
2023-05-24T08:49:04.620Z,99045.10
2023-05-24T08:54:07.584Z,99054.92
2023-05-24T08:59:10.567Z,99059.50
2023-05-24T09:04:13.409Z,99061.77
2023-05-24T09:09:18.587Z,99074.55
2023-05-24T09:14:20.443Z,99082.59
2023-05-24T09:19:22.459Z,99081.98
2023-05-24T09:24:24.358Z,99083.36
2023-05-24T09:29:26.211Z,99082.79
2023-05-24T09:34:27.900Z,99090.08
2023-05-24T09:39:29.741Z,99102.61
2023-05-24T09:44:32.253Z,99108.33
2023-05-24T09:49:37.262Z,99110.56
2023-05-24T09:54:40.184Z,99110.69
2023-05-24T09:59:42.991Z,99115.02
2023-05-24T10:04:45.288Z,99121.95
2023-05-24T10:09:47.387Z,99125.42
2023-05-24T10:14:51.098Z,99128.75
2023-05-24T10:19:52.940Z,99127.09
2023-05-24T10:24:59.968Z,99122.27
2023-05-24T10:30:14.255Z,99123.48
2023-05-24T10:35:18.278Z,99122.40
2023-05-24T10:40:22.126Z,99126.69
2023-05-24T10:45:36.568Z,99128.02
2023-05-24T10:50:38.306Z,99129.19
2023-05-24T10:55:59.325Z,99132.95
2023-05-24T11:01:03.032Z,99132.35
2023-05-24T11:06:05.292Z,99131.22
2023-05-24T11:11:23.312Z,99128.86
2023-05-24T11:16:37.536Z,99131.60
2023-05-24T11:21:43.484Z,99134.02
2023-05-24T11:26:46.327Z,99134.33
2023-05-24T11:31:57.776Z,99136.76
2023-05-24T11:37:01.929Z,99142.80
2023-05-24T11:42:08.057Z,99139.93
2023-05-24T11:47:09.825Z,99131.94
2023-05-24T11:52:11.824Z,99133.16
2023-05-24T11:57:14.111Z,99133.73
2023-05-24T12:02:16.731Z,99131.92
2023-05-24T12:07:18.721Z,99136.28
2023-05-24T12:12:30.297Z,99135.23
2023-05-24T12:17:36.286Z,99138.14
2023-05-24T12:22:38.358Z,99141.20
2023-05-24T12:27:47.703Z,99143.23
2023-05-24T12:32:50.599Z,99148.69
2023-05-24T12:38:00.148Z,99143.83
2023-05-24T12:43:04.042Z,99148.04
2023-05-24T12:48:06.216Z,99146.54
2023-05-24T12:53:08.767Z,99143.48
2023-05-24T12:58:14.216Z,99140.02
2023-05-24T13:03:16.161Z,99144.99
2023-05-24T13:08:18.180Z,99142.44
2023-05-24T13:13:20.070Z,99140.83
2023-05-24T13:18:21.770Z,99140.85
2023-05-24T13:23:23.704Z,99134.38
2023-05-24T13:28:26.361Z,99127.98
2023-05-24T13:33:28.079Z,99128.03
2023-05-24T13:38:29.998Z,99129.42
2023-05-24T13:43:31.902Z,99127.45
2023-05-24T13:48:34.041Z,99136.61
2023-05-24T13:53:36.233Z,99135.41
2023-05-24T13:58:37.835Z,99133.93
2023-05-24T14:03:42.511Z,99135.74
2023-05-24T14:08:44.478Z,99139.17
2023-05-24T14:18:51.696Z,99139.86
2023-05-24T14:23:53.647Z,99138.06
2023-05-24T14:28:56.727Z,99135.35
2023-05-24T14:33:58.859Z,99138.15
2023-05-24T14:39:00.855Z,99140.78
2023-05-24T14:44:02.886Z,99137.94
2023-05-24T14:49:04.774Z,99135.98
2023-05-24T14:54:06.813Z,99141.08
2023-05-24T14:59:08.616Z,99149.33
2023-05-24T15:04:10.342Z,99151.22
2023-05-24T15:09:13.392Z,99151.48
2023-05-24T15:14:15.189Z,99148.09
2023-05-24T15:19:16.887Z,99146.59
2023-05-24T15:24:18.683Z,99144.53
2023-05-24T15:29:21.404Z,99148.45
2023-05-24T15:34:23.811Z,99149.02
2023-05-24T15:39:26.447Z,99152.80
2023-05-24T15:44:28.143Z,99157.84
2023-05-24T15:49:29.880Z,99166.80
2023-05-24T15:54:32.249Z,99167.13
2023-05-24T15:59:36.824Z,99171.56
2023-05-24T16:04:39.314Z,99175.55
2023-05-24T16:09:41.360Z,99172.63
2023-05-24T16:14:43.154Z,99176.77
2023-05-24T16:19:49.591Z,99177.14
2023-05-24T16:24:51.712Z,99182.65
2023-05-24T16:29:53.371Z,99185.83
2023-05-24T16:34:57.203Z,99189.20
2023-05-24T16:39:59.620Z,99187.80
2023-05-24T16:45:01.717Z,99190.55
2023-05-24T16:50:04.099Z,99199.00
2023-05-24T16:55:06.630Z,99206.08
2023-05-24T17:00:09.783Z,99209.59
2023-05-24T17:05:11.785Z,99211.54
2023-05-24T17:10:13.458Z,99216.69
2023-05-24T17:15:15.254Z,99223.67
2023-05-24T17:20:17.219Z,99218.30
2023-05-24T17:25:18.969Z,99215.09
2023-05-24T17:30:21.106Z,99222.18
2023-05-24T17:35:23.283Z,99220.77
2023-05-24T17:40:25.499Z,99230.45
2023-05-24T17:45:27.302Z,99229.94
2023-05-24T17:50:29.132Z,99234.49
2023-05-24T17:55:31.184Z,99242.02
2023-05-24T18:00:32.913Z,99251.15
2023-05-24T18:05:34.690Z,99252.91
2023-05-24T18:10:37.022Z,99253.98
2023-05-24T18:15:38.801Z,99259.32
2023-05-24T18:20:40.765Z,99260.95
2023-05-24T18:25:44.911Z,99267.11
2023-05-24T18:30:46.844Z,99269.02
2023-05-24T18:35:48.561Z,99277.45
2023-05-24T18:40:50.554Z,99293.75
2023-05-24T18:45:52.256Z,99295.40
2023-05-24T18:50:54.872Z,99290.13
2023-05-24T18:55:56.568Z,99292.15
2023-05-24T19:00:58.366Z,99295.27
2023-05-24T19:06:00.306Z,99301.45
2023-05-24T19:11:02.113Z,99314.52
2023-05-24T19:16:03.904Z,99320.39
2023-05-24T19:21:05.875Z,99328.08
2023-05-24T19:26:08.039Z,99337.38
2023-05-24T19:31:10.056Z,99345.21
2023-05-24T19:36:11.802Z,99347.33
2023-05-24T19:41:13.771Z,99346.03
2023-05-24T19:46:15.544Z,99341.77
2023-05-24T19:51:17.486Z,99341.27
2023-05-24T19:56:20.783Z,99340.45
2023-05-24T20:01:22.758Z,99337.44
2023-05-24T20:06:24.549Z,99339.34
2023-05-24T20:11:26.683Z,99336.36
2023-05-24T20:16:29.531Z,99339.98
2023-05-24T20:21:32.817Z,99336.95
2023-05-24T20:26:35.089Z,99331.55
2023-05-24T20:31:37.796Z,99325.84
2023-05-24T20:36:40.850Z,99328.08
2023-05-24T20:41:43.981Z,99328.94
2023-05-24T20:46:45.638Z,99321.05
2023-05-24T20:51:47.342Z,99318.04
2023-05-24T20:56:49.160Z,99325.95
2023-05-24T21:01:51.114Z,99325.61
2023-05-24T21:06:55.123Z,99324.40
2023-05-24T21:11:58.728Z,99327.05
2023-05-24T21:17:00.608Z,99331.45
2023-05-24T21:22:02.596Z,99337.61
2023-05-24T21:27:04.924Z,99347.17
2023-05-24T21:32:08.270Z,99353.84
2023-05-24T21:37:10.117Z,99354.11
2023-05-24T21:42:12.553Z,99358.98
2023-05-24T21:47:15.619Z,99359.48
2023-05-24T21:52:19.581Z,99359.89
2023-05-24T21:57:21.507Z,99364.38
2023-05-24T22:02:23.272Z,99367.77
2023-05-24T22:07:25.197Z,99372.26
2023-05-24T22:12:27.180Z,99375.73
2023-05-24T22:17:29.492Z,99375.04
2023-05-24T22:22:31.300Z,99375.11
2023-05-24T22:27:35.956Z,99380.00
2023-05-24T22:32:37.949Z,99386.84
2023-05-24T22:37:39.735Z,99392.38
2023-05-24T22:42:42.053Z,99389.23
2023-05-24T22:47:43.929Z,99389.97
2023-05-24T22:52:46.742Z,99392.51
2023-05-24T22:57:48.742Z,99390.92
2023-05-24T23:02:50.584Z,99390.92
2023-05-24T23:07:52.846Z,99394.36
2023-05-24T23:12:55.424Z,99400.20
2023-05-24T23:17:58.270Z,99399.20
2023-05-24T23:23:05.955Z,99400.63
2023-05-24T23:28:07.783Z,99400.02
2023-05-24T23:33:09.636Z,99399.70
2023-05-24T23:38:13.695Z,99393.88
2023-05-24T23:43:16.564Z,99398.39
2023-05-24T23:48:21.817Z,99405.89
2023-05-24T23:53:23.621Z,99403.95
2023-05-24T23:58:25.704Z,99402.36
